createdAt,value
2023-04-14T00:00:06.694Z,11.83
2023-04-14T00:03:34.234Z,11.82
2023-04-14T00:06:36.141Z,11.82
2023-04-14T00:09:37.793Z,11.81
2023-04-14T00:12:39.678Z,11.81
2023-04-14T00:15:42.115Z,11.79
2023-04-14T00:18:43.804Z,11.79
2023-04-14T00:21:45.501Z,11.78
2023-04-14T00:24:47.233Z,11.79
2023-04-14T00:27:48.885Z,11.78
2023-04-14T00:30:50.722Z,11.76
2023-04-14T00:33:52.409Z,11.75
2023-04-14T00:36:54.076Z,11.75
2023-04-14T00:39:55.869Z,11.75
2023-04-14T00:42:57.578Z,11.75
2023-04-14T00:46:00.117Z,11.75
2023-04-14T00:49:03.298Z,11.75
2023-04-14T00:52:06.040Z,11.74
2023-04-14T00:55:08.458Z,11.73
2023-04-14T00:58:10.769Z,11.74
2023-04-14T01:01:12.465Z,11.73
2023-04-14T01:04:15.964Z,11.74
2023-04-14T01:07:22.578Z,11.73
2023-04-14T01:10:30.295Z,11.72
2023-04-14T01:13:49.886Z,11.71
2023-04-14T01:16:55.942Z,11.71
2023-04-14T01:20:36.498Z,11.70
2023-04-14T01:24:02.738Z,11.71
2023-04-14T01:27:45.756Z,11.71
2023-04-14T01:31:01.812Z,11.70
2023-04-14T01:34:15.055Z,11.69
2023-04-14T01:37:20.837Z,11.69
2023-04-14T01:40:25.405Z,11.68
2023-04-14T01:43:30.138Z,11.68
2023-04-14T01:46:33.744Z,11.67
2023-04-14T01:49:38.964Z,11.66
2023-04-14T01:52:43.866Z,11.66
2023-04-14T01:55:49.017Z,11.65
2023-04-14T01:58:54.951Z,11.65
2023-04-14T02:02:00.325Z,11.64
2023-04-14T02:05:03.712Z,11.64
2023-04-14T02:08:10.811Z,11.63
2023-04-14T02:11:15.293Z,11.62
2023-04-14T02:14:18.642Z,11.62
2023-04-14T02:17:21.081Z,11.60
2023-04-14T02:20:23.693Z,11.59
2023-04-14T02:23:25.438Z,11.59
2023-04-14T02:26:31.721Z,11.58
2023-04-14T02:29:37.713Z,11.57
2023-04-14T02:32:46.316Z,11.57
2023-04-14T02:36:06.005Z,11.56
2023-04-14T02:39:21.360Z,11.55
2023-04-14T02:42:26.869Z,11.55
2023-04-14T02:45:32.821Z,11.55
2023-04-14T02:48:36.363Z,11.54
2023-04-14T02:51:40.432Z,11.53
2023-04-14T02:54:43.369Z,11.52
2023-04-14T02:57:47.690Z,11.51
2023-04-14T03:00:51.570Z,11.50
2023-04-14T03:03:57.063Z,11.50
2023-04-14T03:07:01.298Z,11.48
2023-04-14T03:10:04.374Z,11.48
2023-04-14T03:13:07.370Z,11.47
2023-04-14T03:16:11.190Z,11.47
2023-04-14T03:19:14.113Z,11.46
2023-04-14T03:22:20.168Z,11.45
2023-04-14T03:25:26.770Z,11.44
2023-04-14T03:28:31.945Z,11.42
2023-04-14T03:31:36.693Z,11.42
2023-04-14T03:34:42.336Z,11.40
2023-04-14T03:37:47.549Z,11.38
2023-04-14T03:40:50.834Z,11.38
2023-04-14T03:43:56.510Z,11.37
2023-04-14T03:47:03.047Z,11.36
2023-04-14T03:50:08.619Z,11.34
2023-04-14T03:53:13.669Z,11.34
2023-04-14T03:56:17.295Z,11.33
2023-04-14T03:59:21.121Z,11.33
2023-04-14T04:02:24.459Z,11.32
2023-04-14T04:05:27.080Z,11.32
2023-04-14T04:08:31.214Z,11.32
2023-04-14T04:11:34.859Z,11.31
2023-04-14T04:14:39.789Z,11.32
2023-04-14T04:17:43.552Z,11.32
2023-04-14T04:20:46.422Z,11.31
2023-04-14T04:23:53.943Z,11.31
2023-04-14T04:26:57.195Z,11.30
2023-04-14T04:29:59.740Z,11.30
2023-04-14T04:33:02.094Z,11.29
2023-04-14T04:36:07.277Z,11.30
2023-04-14T04:39:14.043Z,11.30
2023-04-14T04:42:16.706Z,11.30
2023-04-14T04:45:58.584Z,11.30
2023-04-14T04:49:01.046Z,11.31
2023-04-14T04:52:02.920Z,11.32
2023-04-14T04:55:05.469Z,11.32
2023-04-14T04:58:07.710Z,11.33
2023-04-14T05:01:10.346Z,11.35
2023-04-14T05:04:12.304Z,11.35
2023-04-14T05:07:14.016Z,11.37
2023-04-14T05:10:15.932Z,11.38
2023-04-14T05:13:17.587Z,11.39
2023-04-14T05:16:19.438Z,11.41
2023-04-14T05:19:21.253Z,11.44
2023-04-14T05:22:22.921Z,11.46
2023-04-14T05:25:24.811Z,11.49
2023-04-14T05:28:26.632Z,11.50
2023-04-14T05:31:28.363Z,11.53
2023-04-14T05:34:30.165Z,11.56
2023-04-14T05:37:33.997Z,11.59
2023-04-14T05:40:37.003Z,11.61
2023-04-14T05:43:38.707Z,11.64
2023-04-14T05:46:40.723Z,11.67
2023-04-14T05:49:42.519Z,11.69
2023-04-14T05:52:44.457Z,11.73
2023-04-14T05:55:48.106Z,11.80
2023-04-14T05:58:53.576Z,11.85
2023-04-14T06:01:55.338Z,11.88
2023-04-14T06:04:59.030Z,11.90
2023-04-14T06:08:00.827Z,11.93
2023-04-14T06:11:03.264Z,11.95
2023-04-14T06:14:06.740Z,11.97
2023-04-14T06:17:08.600Z,11.99
2023-04-14T06:20:10.730Z,12.01
2023-04-14T06:23:12.439Z,12.02
2023-04-14T06:26:14.233Z,12.02
2023-04-14T06:29:16.598Z,12.02
2023-04-14T06:32:19.191Z,12.03
2023-04-14T06:35:32.551Z,12.03
2023-04-14T06:38:35.522Z,12.04
2023-04-14T06:41:37.288Z,12.05
2023-04-14T06:44:39.868Z,12.06
2023-04-14T06:47:41.793Z,12.08
2023-04-14T06:50:44.565Z,12.08
2023-04-14T06:53:47.195Z,12.09
2023-04-14T06:56:48.870Z,12.09
2023-04-14T06:59:50.817Z,12.09
2023-04-14T07:02:53.017Z,12.10
2023-04-14T07:06:01.197Z,12.14
2023-04-14T07:09:03.038Z,12.21
2023-04-14T07:12:05.714Z,12.27
2023-04-14T07:15:07.921Z,12.33
2023-04-14T07:18:09.702Z,12.39
2023-04-14T07:21:11.651Z,12.46
2023-04-14T07:24:15.358Z,12.52
2023-04-14T07:27:17.785Z,12.57
2023-04-14T07:30:19.760Z,12.59
2023-04-14T07:33:22.037Z,12.61
2023-04-14T07:36:23.863Z,12.65
2023-04-14T07:39:25.974Z,12.72
2023-04-14T07:42:28.340Z,12.81
2023-04-14T07:45:30.587Z,12.93
2023-04-14T07:48:35.054Z,13.06
2023-04-14T07:51:37.324Z,13.21
2023-04-14T07:54:39.229Z,13.34
2023-04-14T07:57:41.241Z,13.43
2023-04-14T08:00:43.093Z,13.49
2023-04-14T08:03:45.702Z,13.52
2023-04-14T08:06:47.829Z,13.55
2023-04-14T08:09:50.029Z,13.55
2023-04-14T08:12:52.332Z,13.52
2023-04-14T08:15:54.058Z,13.47
2023-04-14T08:18:57.861Z,13.43
2023-04-14T08:22:00.050Z,13.40
2023-04-14T08:25:01.992Z,13.38
2023-04-14T08:28:04.060Z,13.36
2023-04-14T08:31:05.977Z,13.34
2023-04-14T08:34:08.051Z,13.32
2023-04-14T08:37:09.874Z,13.32
2023-04-14T08:40:12.664Z,13.31
2023-04-14T08:43:15.446Z,13.30
2023-04-14T08:46:19.872Z,13.31
2023-04-14T08:49:45.723Z,13.30
2023-04-14T08:52:54.262Z,13.29
2023-04-14T08:55:58.943Z,13.29
2023-04-14T08:59:01.345Z,13.30
2023-04-14T09:02:05.753Z,13.32
2023-04-14T09:05:09.143Z,13.33
2023-04-14T09:08:11.822Z,13.35
2023-04-14T09:11:15.537Z,13.36
2023-04-14T09:14:17.773Z,13.39
2023-04-14T09:17:19.951Z,13.41
2023-04-14T09:20:38.579Z,13.44
2023-04-14T09:23:42.072Z,13.49
2023-04-14T09:26:43.943Z,13.52
2023-04-14T09:29:47.028Z,13.53
2023-04-14T09:32:55.865Z,13.57
2023-04-14T09:35:57.859Z,13.59
2023-04-14T09:38:59.862Z,13.63
2023-04-14T09:42:03.117Z,13.67
2023-04-14T09:45:05.752Z,13.73
2023-04-14T09:48:08.086Z,13.80
2023-04-14T09:51:09.965Z,13.90
2023-04-14T09:54:12.382Z,14.08
2023-04-14T09:57:24.050Z,14.37
2023-04-14T10:00:25.882Z,14.69
2023-04-14T10:03:41.046Z,15.02
2023-04-14T10:06:47.319Z,15.40
2023-04-14T10:09:51.980Z,15.69
2023-04-14T10:12:55.122Z,15.91
2023-04-14T10:15:57.342Z,16.09
2023-04-14T10:19:00.325Z,16.26
2023-04-14T10:22:05.953Z,16.37
2023-04-14T10:25:09.552Z,16.40
2023-04-14T10:28:12.121Z,16.40
2023-04-14T10:31:20.372Z,16.42
2023-04-14T10:34:24.893Z,16.44
2023-04-14T10:37:27.630Z,16.42
2023-04-14T10:40:45.468Z,16.46
2023-04-14T10:43:47.447Z,16.44
2023-04-14T10:46:50.396Z,16.40
2023-04-14T10:49:56.193Z,16.38
2023-04-14T10:53:06.317Z,16.37
2023-04-14T10:56:08.100Z,16.37
2023-04-14T10:59:10.173Z,16.38
2023-04-14T11:02:32.454Z,16.36
2023-04-14T11:05:42.557Z,16.33
2023-04-14T11:08:49.669Z,16.30
2023-04-14T11:11:52.678Z,16.27
2023-04-14T11:14:56.473Z,16.22
2023-04-14T11:18:13.315Z,16.16
2023-04-14T11:21:19.667Z,16.11
2023-04-14T11:24:24.947Z,16.06
2023-04-14T11:27:27.227Z,16.03
2023-04-14T11:30:29.058Z,16.00
2023-04-14T11:33:33.420Z,15.98
2023-04-14T11:36:36.564Z,15.94
2023-04-14T11:39:38.407Z,15.88
2023-04-14T11:42:50.639Z,15.82
2023-04-14T11:45:52.715Z,15.76
2023-04-14T11:48:55.923Z,15.69
2023-04-14T11:52:04.293Z,15.64
2023-04-14T11:55:06.732Z,15.61
2023-04-14T11:58:08.942Z,15.61
2023-04-14T12:01:14.014Z,15.64
2023-04-14T12:04:17.157Z,15.68
2023-04-14T12:07:19.773Z,15.73
2023-04-14T12:10:21.882Z,15.79
2023-04-14T12:13:24.440Z,15.85
2023-04-14T12:16:26.557Z,15.89
2023-04-14T12:19:28.308Z,15.93
2023-04-14T12:22:30.207Z,15.97
2023-04-14T12:25:34.875Z,15.98
2023-04-14T12:28:38.534Z,15.99
2023-04-14T12:31:43.704Z,15.99
2023-04-14T12:34:53.718Z,16.00
2023-04-14T12:37:56.206Z,16.01
2023-04-14T12:41:00.965Z,16.02
2023-04-14T12:44:14.299Z,16.03
2023-04-14T12:47:26.426Z,16.05
2023-04-14T12:50:29.728Z,16.09
2023-04-14T12:53:32.177Z,16.19
2023-04-14T12:56:33.933Z,16.37
2023-04-14T12:59:38.947Z,16.50
2023-04-14T13:02:42.146Z,16.57
2023-04-14T13:05:45.472Z,16.57
2023-04-14T13:08:55.645Z,16.54
2023-04-14T13:11:57.644Z,16.51
2023-04-14T13:14:59.851Z,16.49
2023-04-14T13:18:01.650Z,16.45
2023-04-14T13:21:04.225Z,16.44
2023-04-14T13:24:06.888Z,16.46
2023-04-14T13:27:08.875Z,16.50
2023-04-14T13:30:11.075Z,16.54
2023-04-14T13:33:13.027Z,16.59
2023-04-14T13:36:15.076Z,16.61
2023-04-14T13:39:16.961Z,16.60
2023-04-14T13:42:18.686Z,16.58
2023-04-14T13:45:31.118Z,16.55
2023-04-14T13:48:32.721Z,16.50
2023-04-14T13:51:34.520Z,16.46
2023-04-14T13:54:36.232Z,16.40
2023-04-14T13:57:37.925Z,16.34
2023-04-14T14:00:42.517Z,16.30
2023-04-14T14:03:45.060Z,16.24
2023-04-14T14:06:47.524Z,16.19
2023-04-14T14:09:49.887Z,16.13
2023-04-14T14:12:54.093Z,16.08
2023-04-14T14:15:55.843Z,16.03
2023-04-14T14:18:59.172Z,15.99
2023-04-14T14:22:01.573Z,15.94
2023-04-14T14:25:17.710Z,15.90
2023-04-14T14:28:21.944Z,15.87
2023-04-14T14:31:23.750Z,15.85
2023-04-14T14:34:25.799Z,15.83
2023-04-14T14:37:27.561Z,15.82
2023-04-14T14:40:30.830Z,15.79
2023-04-14T14:43:32.630Z,15.77
2023-04-14T14:46:34.401Z,15.75
2023-04-14T14:49:37.749Z,15.72
2023-04-14T14:52:43.806Z,15.69
2023-04-14T14:55:45.501Z,15.68
2023-04-14T14:58:47.445Z,15.67
2023-04-14T15:01:49.254Z,15.67
2023-04-14T15:04:51.036Z,15.68
2023-04-14T15:07:52.723Z,15.67
2023-04-14T15:10:54.600Z,15.65
2023-04-14T15:13:59.636Z,15.63
2023-04-14T15:17:01.947Z,15.61
2023-04-14T15:20:04.244Z,15.58
2023-04-14T15:23:06.628Z,15.56
2023-04-14T15:26:08.650Z,15.54
2023-04-14T15:29:10.490Z,15.52
2023-04-14T15:32:12.304Z,15.50
2023-04-14T15:35:14.102Z,15.47
2023-04-14T15:38:15.812Z,15.45
2023-04-14T15:41:17.688Z,15.43
2023-04-14T15:44:19.532Z,15.42
2023-04-14T15:47:21.278Z,15.41
2023-04-14T15:50:23.011Z,15.40
2023-04-14T15:53:24.898Z,15.39
2023-04-14T15:56:26.663Z,15.38
2023-04-14T15:59:29.024Z,15.35
2023-04-14T16:02:34.234Z,15.35
2023-04-14T16:05:36.165Z,15.34
2023-04-14T16:08:37.937Z,15.33
2023-04-14T16:11:40.259Z,15.32
2023-04-14T16:14:42.438Z,15.31
2023-04-14T16:17:44.404Z,15.31
2023-04-14T16:20:49.413Z,15.30
2023-04-14T16:23:51.184Z,15.28
2023-04-14T16:26:53.034Z,15.27
2023-04-14T16:29:55.317Z,15.25
2023-04-14T16:32:56.946Z,15.22
2023-04-14T16:36:02.650Z,15.22
2023-04-14T16:39:04.910Z,15.20
2023-04-14T16:42:07.260Z,15.18
2023-04-14T16:45:10.047Z,15.20
2023-04-14T16:48:11.723Z,15.20
2023-04-14T16:51:13.552Z,15.19
2023-04-14T16:54:15.572Z,15.18
2023-04-14T16:57:17.740Z,15.16
2023-04-14T17:00:20.827Z,15.15
2023-04-14T17:03:25.955Z,15.13
2023-04-14T17:06:27.861Z,15.11
2023-04-14T17:09:29.623Z,15.10
2023-04-14T17:12:31.608Z,15.09
2023-04-14T17:15:33.457Z,15.08
2023-04-14T17:18:35.960Z,15.06
2023-04-14T17:21:38.044Z,15.05
2023-04-14T17:24:39.995Z,15.04
2023-04-14T17:27:41.915Z,15.03
2023-04-14T17:30:44.204Z,15.03
2023-04-14T17:33:46.453Z,15.02
2023-04-14T17:36:49.226Z,15.01
2023-04-14T17:39:52.556Z,15.01
2023-04-14T17:42:55.014Z,14.99
2023-04-14T17:45:57.647Z,14.98
2023-04-14T17:49:01.327Z,14.96
2023-04-14T17:52:03.311Z,14.94
2023-04-14T17:55:06.570Z,14.91
2023-04-14T17:58:11.545Z,14.88
2023-04-14T18:01:13.354Z,14.85
2023-04-14T18:04:15.385Z,14.83
2023-04-14T18:07:17.154Z,14.80
2023-04-14T18:10:18.933Z,14.76
2023-04-14T18:13:20.696Z,14.74
2023-04-14T18:16:22.967Z,14.71
2023-04-14T18:19:24.555Z,14.67
2023-04-14T18:22:26.828Z,14.64
2023-04-14T18:26:26.327Z,14.60
2023-04-14T18:28:52.470Z,14.56
2023-04-14T18:31:54.629Z,14.52
2023-04-14T18:34:56.890Z,14.48
2023-04-14T18:37:58.730Z,14.45
2023-04-14T18:41:02.979Z,14.42
2023-04-14T18:44:04.871Z,14.37
2023-04-14T18:47:06.634Z,14.34
2023-04-14T18:50:08.706Z,14.30
2023-04-14T18:53:11.477Z,14.26
2023-04-14T18:56:13.789Z,14.23
2023-04-14T18:59:15.654Z,14.20
2023-04-14T19:02:17.472Z,14.17
2023-04-14T19:05:19.338Z,14.14
2023-04-14T19:08:21.763Z,14.12
2023-04-14T19:11:23.660Z,14.10
2023-04-14T19:14:25.365Z,14.09
2023-04-14T19:17:27.882Z,14.07
2023-04-14T19:20:29.945Z,14.06
2023-04-14T19:23:31.674Z,14.04
2023-04-14T19:26:37.078Z,14.01
2023-04-14T19:29:39.074Z,13.99
2023-04-14T19:32:41.442Z,13.98
2023-04-14T19:35:46.234Z,13.97
2023-04-14T19:38:48.409Z,13.95
2023-04-14T19:41:50.066Z,13.93
2023-04-14T19:44:51.777Z,13.91
2023-04-14T19:47:53.775Z,13.89
2023-04-14T19:50:55.500Z,13.88
2023-04-14T19:53:57.255Z,13.87
2023-04-14T19:57:00.156Z,13.86
2023-04-14T20:00:06.174Z,13.85
2023-04-14T20:03:14.351Z,13.84
2023-04-14T20:06:17.019Z,13.82
2023-04-14T20:09:19.271Z,13.82
2023-04-14T20:12:21.058Z,13.81
2023-04-14T20:15:24.244Z,13.81
2023-04-14T20:18:27.447Z,13.78
2023-04-14T20:21:29.318Z,13.77
2023-04-14T20:24:30.973Z,13.76
2023-04-14T20:27:32.695Z,13.75
2023-04-14T20:30:34.663Z,13.75
2023-04-14T20:33:36.511Z,13.76
2023-04-14T20:36:38.264Z,13.76
2023-04-14T20:39:39.960Z,13.75
2023-04-14T20:42:41.670Z,13.74
2023-04-14T20:45:44.379Z,13.75
2023-04-14T20:48:46.015Z,13.75
2023-04-14T20:51:48.346Z,13.73
2023-04-14T20:54:50.052Z,13.72
2023-04-14T20:57:53.085Z,13.71
2023-04-14T21:00:56.277Z,13.69
2023-04-14T21:03:58.135Z,13.67
2023-04-14T21:06:59.879Z,13.66
2023-04-14T21:10:06.189Z,13.64
2023-04-14T21:15:27.223Z,13.62
2023-04-14T21:16:30.072Z,13.60
2023-04-14T21:19:32.149Z,13.57
2023-04-14T21:22:34.285Z,13.57
2023-04-14T21:25:36.111Z,13.55
2023-04-14T21:28:37.949Z,13.53
2023-04-14T21:31:39.646Z,13.52
2023-04-14T21:34:41.712Z,13.49
2023-04-14T21:37:43.421Z,13.48
2023-04-14T21:40:45.221Z,13.47
2023-04-14T21:43:47.018Z,13.46
2023-04-14T21:46:48.738Z,13.46
2023-04-14T21:49:50.950Z,13.44
2023-04-14T21:52:52.677Z,13.42
2023-04-14T21:56:09.038Z,13.41
2023-04-14T21:59:11.949Z,13.41
2023-04-14T22:02:13.670Z,13.40
2023-04-14T22:05:15.631Z,13.40
2023-04-14T22:08:17.981Z,13.40
2023-04-14T22:11:20.031Z,13.39
2023-04-14T22:14:22.058Z,13.39
2023-04-14T22:17:23.852Z,13.39
2023-04-14T22:20:25.913Z,13.37
2023-04-14T22:23:27.836Z,13.36
2023-04-14T22:26:30.532Z,13.35
2023-04-14T22:29:32.271Z,13.34
2023-04-14T22:32:33.964Z,13.32
2023-04-14T22:35:35.710Z,13.30
2023-04-14T22:38:37.427Z,13.29
2023-04-14T22:41:39.105Z,13.27
2023-04-14T22:44:40.736Z,13.25
2023-04-14T22:47:42.455Z,13.24
2023-04-14T22:50:44.213Z,13.23
2023-04-14T22:53:46.079Z,13.23
2023-04-14T22:56:47.728Z,13.21
2023-04-14T22:59:49.496Z,13.20
2023-04-14T23:02:52.084Z,13.21
2023-04-14T23:05:54.496Z,13.20
2023-04-14T23:08:56.501Z,13.20
2023-04-14T23:11:58.281Z,13.18
2023-04-14T23:15:00.364Z,13.17
2023-04-14T23:18:02.548Z,13.17
2023-04-14T23:21:04.708Z,13.14
2023-04-14T23:24:06.908Z,13.14
2023-04-14T23:27:08.528Z,13.13
2023-04-14T23:30:10.808Z,13.12
2023-04-14T23:33:13.050Z,13.10
2023-04-14T23:36:14.842Z,13.09
2023-04-14T23:39:16.944Z,13.08
2023-04-14T23:42:18.732Z,13.07
2023-04-14T23:45:20.492Z,13.07
2023-04-14T23:48:22.247Z,13.06
2023-04-14T23:51:23.933Z,13.05
2023-04-14T23:54:27.088Z,13.05
2023-04-14T23:57:28.822Z,13.04
